sensor_id;sensor_type;location;lat;lon;timestamp;P1;durP1;ratioP1;P2;durP2;ratioP2
25609;SDS011;13479;49.044;8.716;2024-01-10T05:02:35;20.83;;;7.70;;
25609;SDS011;13479;49.044;8.716;2024-01-10T05:05:00;21.30;;;7.63;;
25609;SDS011;13479;49.044;8.716;2024-01-10T05:07:26;20.83;;;8.60;;
25609;SDS011;13479;49.044;8.716;2024-01-10T05:09:51;23.40;;;8.17;;
25609;SDS011;13479;49.044;8.716;2024-01-10T05:12:16;23.93;;;7.93;;
25609;SDS011;13479;49.044;8.716;2024-01-10T05:14:42;20.30;;;7.17;;
25609;SDS011;13479;49.044;8.716;2024-01-10T05:17:07;20.30;;;8.03;;
25609;SDS011;13479;49.044;8.716;2024-01-10T05:19:32;23.13;;;9.30;;
25609;SDS011;13479;49.044;8.716;2024-01-10T05:21:57;20.73;;;8.10;;
25609;SDS011;13479;49.044;8.716;2024-01-10T05:24:23;17.13;;;7.30;;
25609;SDS011;13479;49.044;8.716;2024-01-10T05:26:49;21.07;;;6.80;;
25609;SDS011;13479;49.044;8.716;2024-01-10T05:29:16;25.50;;;8.87;;
25609;SDS011;13479;49.044;8.716;2024-01-10T05:31:42;24.63;;;9.50;;
25609;SDS011;13479;49.044;8.716;2024-01-10T05:34:08;27.80;;;9.90;;
25609;SDS011;13479;49.044;8.716;2024-01-10T05:36:33;30.53;;;10.60;;
25609;SDS011;13479;49.044;8.716;2024-01-10T05:38:58;34.87;;;12.33;;
25609;SDS011;13479;49.044;8.716;2024-01-10T05:41:24;31.47;;;11.10;;
25609;SDS011;13479;49.044;8.716;2024-01-10T05:43:51;33.30;;;12.07;;
25609;SDS011;13479;49.044;8.716;2024-01-10T05:46:16;38.20;;;12.63;;
25609;SDS011;13479;49.044;8.716;2024-01-10T05:48:41;33.83;;;11.97;;
25609;SDS011;13479;49.044;8.716;2024-01-10T05:51:06;30.10;;;11.80;;
25609;SDS011;13479;49.044;8.716;2024-01-10T05:53:32;28.63;;;10.57;;
25609;SDS011;13479;49.044;8.716;2024-01-10T05:55:58;24.67;;;10.37;;
25609;SDS011;13479;49.044;8.716;2024-01-10T05:58:23;21.90;;;8.50;;
25609;SDS011;13479;49.044;8.716;2024-01-10T06:00:48;24.90;;;9.67;;
25609;SDS011;13479;49.044;8.716;2024-01-10T06:03:14;23.77;;;9.30;;
25609;SDS011;13479;49.044;8.716;2024-01-10T06:05:39;22.83;;;8.80;;
25609;SDS011;13479;49.044;8.716;2024-01-10T06:08:04;21.33;;;8.43;;
25609;SDS011;13479;49.044;8.716;2024-01-10T06:10:30;21.00;;;7.87;;
25609;SDS011;13479;49.044;8.716;2024-01-10T06:12:55;21.50;;;8.53;;
25609;SDS011;13479;49.044;8.716;2024-01-10T06:15:21;19.43;;;8.07;;
25609;SDS011;13479;49.044;8.716;2024-01-10T06:17:46;23.60;;;8.90;;
25609;SDS011;13479;49.044;8.716;2024-01-10T06:20:12;22.80;;;7.93;;
25609;SDS011;13479;49.044;8.716;2024-01-10T06:22:38;25.17;;;8.80;;
25609;SDS011;13479;49.044;8.716;2024-01-10T06:25:04;20.03;;;8.07;;
25609;SDS011;13479;49.044;8.716;2024-01-10T06:27:29;21.90;;;7.90;;
25609;SDS011;13479;49.044;8.716;2024-01-10T06:29:55;13.37;;;5.27;;
25609;SDS011;13479;49.044;8.716;2024-01-10T06:32:20;18.60;;;6.83;;
25609;SDS011;13479;49.044;8.716;2024-01-10T06:34:45;24.87;;;8.03;;
25609;SDS011;13479;49.044;8.716;2024-01-10T06:37:11;24.80;;;8.40;;
25609;SDS011;13479;49.044;8.716;2024-01-10T06:39:36;20.93;;;6.53;;
25609;SDS011;13479;49.044;8.716;2024-01-10T06:42:01;16.90;;;6.17;;
25609;SDS011;13479;49.044;8.716;2024-01-10T06:44:30;22.17;;;8.10;;
25609;SDS011;13479;49.044;8.716;2024-01-10T06:46:56;24.93;;;8.83;;
25609;SDS011;13479;49.044;8.716;2024-01-10T06:49:21;20.87;;;7.90;;
25609;SDS011;13479;49.044;8.716;2024-01-10T06:51:47;21.97;;;8.43;;
25609;SDS011;13479;49.044;8.716;2024-01-10T06:54:12;21.80;;;8.60;;
25609;SDS011;13479;49.044;8.716;2024-01-10T06:56:38;25.73;;;7.90;;
25609;SDS011;13479;49.044;8.716;2024-01-10T06:59:04;21.57;;;8.03;;
25609;SDS011;13479;49.044;8.716;2024-01-10T07:01:29;23.33;;;7.87;;
25609;SDS011;13479;49.044;8.716;2024-01-10T07:03:54;25.93;;;10.30;;
25609;SDS011;13479;49.044;8.716;2024-01-10T07:06:20;21.87;;;8.20;;
25609;SDS011;13479;49.044;8.716;2024-01-10T07:08:47;20.53;;;7.63;;
25609;SDS011;13479;49.044;8.716;2024-01-10T07:11:14;20.03;;;6.37;;
25609;SDS011;13479;49.044;8.716;2024-01-10T07:13:40;17.75;;;6.93;;
25609;SDS011;13479;49.044;8.716;2024-01-10T07:16:06;11.73;;;4.33;;
25609;SDS011;13479;49.044;8.716;2024-01-10T07:18:32;10.77;;;4.07;;
25609;SDS011;13479;49.044;8.716;2024-01-10T07:20:57;12.03;;;5.53;;
25609;SDS011;13479;49.044;8.716;2024-01-10T07:23:23;21.13;;;7.53;;
25609;SDS011;13479;49.044;8.716;2024-01-10T07:25:49;17.50;;;6.93;;
25609;SDS011;13479;49.044;8.716;2024-01-10T07:28:15;14.80;;;5.50;;
25609;SDS011;13479;49.044;8.716;2024-01-10T07:30:40;21.30;;;8.10;;
25609;SDS011;13479;49.044;8.716;2024-01-10T07:33:06;23.03;;;8.37;;
25609;SDS011;13479;49.044;8.716;2024-01-10T07:35:32;25.53;;;8.67;;
25609;SDS011;13479;49.044;8.716;2024-01-10T07:37:58;24.93;;;9.50;;
25609;SDS011;13479;49.044;8.716;2024-01-10T07:40:23;22.00;;;8.93;;
25609;SDS011;13479;49.044;8.716;2024-01-10T07:42:48;15.77;;;6.33;;
25609;SDS011;13479;49.044;8.716;2024-01-10T07:45:14;25.77;;;7.97;;
25609;SDS011;13479;49.044;8.716;2024-01-10T07:47:39;23.00;;;9.00;;
25609;SDS011;13479;49.044;8.716;2024-01-10T07:50:08;21.43;;;8.23;;
25609;SDS011;13479;49.044;8.716;2024-01-10T07:52:34;23.40;;;8.80;;
25609;SDS011;13479;49.044;8.716;2024-01-10T07:55:00;22.80;;;8.90;;
25609;SDS011;13479;49.044;8.716;2024-01-10T07:57:26;23.00;;;8.07;;
25609;SDS011;13479;49.044;8.716;2024-01-10T07:59:52;20.07;;;7.40;;
25609;SDS011;13479;49.044;8.716;2024-01-10T08:02:18;23.70;;;7.87;;
25609;SDS011;13479;49.044;8.716;2024-01-10T08:04:43;27.97;;;7.87;;
25609;SDS011;13479;49.044;8.716;2024-01-10T08:07:09;23.83;;;8.27;;
25609;SDS011;13479;49.044;8.716;2024-01-10T08:09:34;28.20;;;9.07;;
25609;SDS011;13479;49.044;8.716;2024-01-10T08:12:01;35.03;;;10.57;;
25609;SDS011;13479;49.044;8.716;2024-01-10T08:14:27;27.50;;;8.60;;
25609;SDS011;13479;49.044;8.716;2024-01-10T08:16:52;21.23;;;8.33;;
25609;SDS011;13479;49.044;8.716;2024-01-10T08:19:19;19.20;;;7.30;;
25609;SDS011;13479;49.044;8.716;2024-01-10T08:21:44;22.90;;;7.83;;
25609;SDS011;13479;49.044;8.716;2024-01-10T08:24:10;19.20;;;6.17;;
25609;SDS011;13479;49.044;8.716;2024-01-10T08:26:35;19.03;;;6.60;;
25609;SDS011;13479;49.044;8.716;2024-01-10T08:29:00;25.27;;;9.43;;
25609;SDS011;13479;49.044;8.716;2024-01-10T08:31:25;19.03;;;6.67;;
25609;SDS011;13479;49.044;8.716;2024-01-10T08:33:52;22.97;;;8.20;;
25609;SDS011;13479;49.044;8.716;2024-01-10T08:36:17;17.73;;;7.40;;
25609;SDS011;13479;49.044;8.716;2024-01-10T08:38:42;24.50;;;8.00;;
25609;SDS011;13479;49.044;8.716;2024-01-10T08:41:08;22.03;;;8.33;;
25609;SDS011;13479;49.044;8.716;2024-01-10T08:43:36;22.17;;;8.07;;
25609;SDS011;13479;49.044;8.716;2024-01-10T08:46:02;21.00;;;8.87;;
25609;SDS011;13479;49.044;8.716;2024-01-10T08:48:27;20.93;;;7.93;;
25609;SDS011;13479;49.044;8.716;2024-01-10T08:50:53;24.43;;;10.13;;
25609;SDS011;13479;49.044;8.716;2024-01-10T08:53:21;21.43;;;9.87;;
25609;SDS011;13479;49.044;8.716;2024-01-10T08:55:46;24.37;;;10.57;;
25609;SDS011;13479;49.044;8.716;2024-01-10T08:58:12;24.40;;;9.63;;
25609;SDS011;13479;49.044;8.716;2024-01-10T09:00:37;25.10;;;8.97;;
25609;SDS011;13479;49.044;8.716;2024-01-10T09:03:02;17.73;;;7.60;;
25609;SDS011;13479;49.044;8.716;2024-01-10T09:05:28;19.93;;;8.90;;
25609;SDS011;13479;49.044;8.716;2024-01-10T09:07:53;19.33;;;7.97;;
25609;SDS011;13479;49.044;8.716;2024-01-10T09:10:19;18.90;;;8.47;;
25609;SDS011;13479;49.044;8.716;2024-01-10T09:12:46;23.63;;;9.27;;
25609;SDS011;13479;49.044;8.716;2024-01-10T09:15:12;25.50;;;10.85;;
25609;SDS011;13479;49.044;8.716;2024-01-10T09:17:39;23.27;;;9.05;;
25609;SDS011;13479;49.044;8.716;2024-01-10T09:20:08;24.95;;;8.98;;
25609;SDS011;13479;49.044;8.716;2024-01-10T09:22:35;18.98;;;8.57;;
25609;SDS011;13479;49.044;8.716;2024-01-10T09:25:00;18.50;;;9.00;;
25609;SDS011;13479;49.044;8.716;2024-01-10T09:27:29;20.65;;;9.80;;
25609;SDS011;13479;49.044;8.716;2024-01-10T09:29:55;20.40;;;8.67;;
25609;SDS011;13479;49.044;8.716;2024-01-10T09:32:20;17.15;;;7.80;;
25609;SDS011;13479;49.044;8.716;2024-01-10T09:34:47;14.83;;;6.83;;
25609;SDS011;13479;49.044;8.716;2024-01-10T09:37:12;19.27;;;8.77;;
25609;SDS011;13479;49.044;8.716;2024-01-10T09:39:37;21.70;;;9.83;;
25609;SDS011;13479;49.044;8.716;2024-01-10T09:42:03;18.63;;;6.93;;
25609;SDS011;13479;49.044;8.716;2024-01-10T09:44:29;17.90;;;6.50;;
25609;SDS011;13479;49.044;8.716;2024-01-10T09:46:54;23.80;;;7.43;;
25609;SDS011;13479;49.044;8.716;2024-01-10T09:49:20;10.17;;;5.00;;
25609;SDS011;13479;49.044;8.716;2024-01-10T09:51:47;13.73;;;5.47;;
25609;SDS011;13479;49.044;8.716;2024-01-10T09:54:13;9.07;;;4.10;;
25609;SDS011;13479;49.044;8.716;2024-01-10T09:56:41;15.97;;;7.50;;
25609;SDS011;13479;49.044;8.716;2024-01-10T09:59:06;26.87;;;8.93;;
25609;SDS011;13479;49.044;8.716;2024-01-10T10:01:36;23.17;;;9.23;;
25609;SDS011;13479;49.044;8.716;2024-01-10T10:04:04;19.50;;;8.70;;
25609;SDS011;13479;49.044;8.716;2024-01-10T10:06:29;26.53;;;7.93;;
25609;SDS011;13479;49.044;8.716;2024-01-10T10:08:55;17.30;;;6.00;;
25609;SDS011;13479;49.044;8.716;2024-01-10T10:11:20;17.73;;;7.60;;
25609;SDS011;13479;49.044;8.716;2024-01-10T10:13:46;24.50;;;10.23;;
25609;SDS011;13479;49.044;8.716;2024-01-10T10:16:11;22.83;;;9.43;;
25609;SDS011;13479;49.044;8.716;2024-01-10T10:18:37;25.27;;;11.17;;
25609;SDS011;13479;49.044;8.716;2024-01-10T10:21:09;11.83;;;5.03;;
25609;SDS011;13479;49.044;8.716;2024-01-10T10:23:36;19.60;;;8.83;;
25609;SDS011;13479;49.044;8.716;2024-01-10T10:26:09;22.10;;;8.03;;
25609;SDS011;13479;49.044;8.716;2024-01-10T10:28:35;24.20;;;10.80;;
25609;SDS011;13479;49.044;8.716;2024-01-10T10:31:01;13.13;;;5.37;;
25609;SDS011;13479;49.044;8.716;2024-01-10T10:33:27;26.30;;;9.20;;
25609;SDS011;13479;49.044;8.716;2024-01-10T10:35:52;26.13;;;11.87;;
25609;SDS011;13479;49.044;8.716;2024-01-10T10:38:17;28.77;;;14.53;;
25609;SDS011;13479;49.044;8.716;2024-01-10T10:40:43;23.13;;;10.47;;
25609;SDS011;13479;49.044;8.716;2024-01-10T10:43:10;15.03;;;7.10;;
25609;SDS011;13479;49.044;8.716;2024-01-10T10:45:43;20.87;;;8.93;;
25609;SDS011;13479;49.044;8.716;2024-01-10T10:48:16;21.70;;;8.97;;
25609;SDS011;13479;49.044;8.716;2024-01-10T10:50:50;19.37;;;8.67;;
25609;SDS011;13479;49.044;8.716;2024-01-10T10:53:28;25.00;;;10.47;;
25609;SDS011;13479;49.044;8.716;2024-01-10T10:55:55;27.30;;;12.20;;
25609;SDS011;13479;49.044;8.716;2024-01-10T10:58:23;19.00;;;8.33;;
25609;SDS011;13479;49.044;8.716;2024-01-10T11:00:49;24.83;;;11.40;;
25609;SDS011;13479;49.044;8.716;2024-01-10T11:03:15;20.43;;;8.20;;
25609;SDS011;13479;49.044;8.716;2024-01-10T11:05:42;15.47;;;6.30;;
25609;SDS011;13479;49.044;8.716;2024-01-10T11:08:11;23.43;;;10.07;;
25609;SDS011;13479;49.044;8.716;2024-01-10T11:10:40;24.50;;;10.83;;
25609;SDS011;13479;49.044;8.716;2024-01-10T11:16:08;19.20;;;9.90;;
25609;SDS011;13479;49.044;8.716;2024-01-10T11:24:37;24.97;;;10.97;;
25609;SDS011;13479;49.044;8.716;2024-01-10T11:27:12;28.23;;;11.90;;
25609;SDS011;13479;49.044;8.716;2024-01-10T11:29:39;12.40;;;4.73;;
25609;SDS011;13479;49.044;8.716;2024-01-10T11:32:14;30.30;;;13.40;;
25609;SDS011;13479;49.044;8.716;2024-01-10T11:39:45;30.73;;;12.57;;
25609;SDS011;13479;49.044;8.716;2024-01-10T11:42:10;15.87;;;5.27;;
25609;SDS011;13479;49.044;8.716;2024-01-10T11:44:48;15.83;;;7.00;;
25609;SDS011;13479;49.044;8.716;2024-01-10T11:47:17;16.43;;;6.47;;
25609;SDS011;13479;49.044;8.716;2024-01-10T11:49:53;23.17;;;9.43;;
25609;SDS011;13479;49.044;8.716;2024-01-10T11:52:21;26.00;;;11.00;;
25609;SDS011;13479;49.044;8.716;2024-01-10T11:54:46;23.40;;;9.70;;
25609;SDS011;13479;49.044;8.716;2024-01-10T11:57:21;24.97;;;11.43;;
25609;SDS011;13479;49.044;8.716;2024-01-10T11:59:50;20.60;;;8.27;;
25609;SDS011;13479;49.044;8.716;2024-01-10T12:02:18;27.80;;;12.07;;
25609;SDS011;13479;49.044;8.716;2024-01-10T12:04:44;18.40;;;7.97;;
25609;SDS011;13479;49.044;8.716;2024-01-10T12:07:13;28.63;;;11.40;;
25609;SDS011;13479;49.044;8.716;2024-01-10T12:09:39;25.40;;;9.77;;
25609;SDS011;13479;49.044;8.716;2024-01-10T12:12:04;28.93;;;9.47;;
25609;SDS011;13479;49.044;8.716;2024-01-10T12:14:31;22.47;;;8.97;;
25609;SDS011;13479;49.044;8.716;2024-01-10T12:16:56;30.37;;;11.90;;
25609;SDS011;13479;49.044;8.716;2024-01-10T12:19:22;26.47;;;9.53;;
25609;SDS011;13479;49.044;8.716;2024-01-10T12:21:50;17.70;;;7.63;;
25609;SDS011;13479;49.044;8.716;2024-01-10T12:24:17;25.83;;;11.43;;
25609;SDS011;13479;49.044;8.716;2024-01-10T12:26:46;35.70;;;13.47;;
25609;SDS011;13479;49.044;8.716;2024-01-10T12:29:12;21.40;;;9.23;;
25609;SDS011;13479;49.044;8.716;2024-01-10T12:31:37;29.77;;;13.17;;
25609;SDS011;13479;49.044;8.716;2024-01-10T12:34:07;25.03;;;11.23;;
25609;SDS011;13479;49.044;8.716;2024-01-10T12:36:34;18.60;;;7.00;;
25609;SDS011;13479;49.044;8.716;2024-01-10T12:38:59;25.77;;;11.03;;
25609;SDS011;13479;49.044;8.716;2024-01-10T12:41:25;27.30;;;12.10;;
25609;SDS011;13479;49.044;8.716;2024-01-10T12:43:54;27.93;;;9.53;;
25609;SDS011;13479;49.044;8.716;2024-01-10T12:46:20;25.63;;;11.97;;
25609;SDS011;13479;49.044;8.716;2024-01-10T12:48:49;30.03;;;12.40;;
25609;SDS011;13479;49.044;8.716;2024-01-10T12:51:24;27.70;;;11.47;;
25609;SDS011;13479;49.044;8.716;2024-01-10T12:53:49;26.87;;;12.27;;
25609;SDS011;13479;49.044;8.716;2024-01-10T12:56:14;27.87;;;13.07;;
25609;SDS011;13479;49.044;8.716;2024-01-10T12:58:40;29.10;;;12.17;;
25609;SDS011;13479;49.044;8.716;2024-01-10T13:01:10;33.10;;;12.47;;
25609;SDS011;13479;49.044;8.716;2024-01-10T13:03:36;27.10;;;11.63;;
25609;SDS011;13479;49.044;8.716;2024-01-10T13:06:02;25.60;;;11.67;;
25609;SDS011;13479;49.044;8.716;2024-01-10T13:08:28;27.03;;;10.00;;
25609;SDS011;13479;49.044;8.716;2024-01-10T13:10:53;29.80;;;13.53;;
25609;SDS011;13479;49.044;8.716;2024-01-10T13:13:19;22.60;;;9.67;;
25609;SDS011;13479;49.044;8.716;2024-01-10T13:15:46;28.33;;;11.77;;
25609;SDS011;13479;49.044;8.716;2024-01-10T13:18:12;26.57;;;9.60;;
25609;SDS011;13479;49.044;8.716;2024-01-10T13:20:39;27.60;;;10.53;;
25609;SDS011;13479;49.044;8.716;2024-01-10T13:23:05;23.43;;;8.50;;
25609;SDS011;13479;49.044;8.716;2024-01-10T13:25:30;27.83;;;9.83;;
25609;SDS011;13479;49.044;8.716;2024-01-10T13:27:56;17.63;;;7.43;;
25609;SDS011;13479;49.044;8.716;2024-01-10T13:30:22;23.27;;;7.53;;
25609;SDS011;13479;49.044;8.716;2024-01-10T13:32:48;14.37;;;5.63;;
25609;SDS011;13479;49.044;8.716;2024-01-10T13:35:13;30.77;;;13.67;;
25609;SDS011;13479;49.044;8.716;2024-01-10T13:37:39;27.90;;;12.63;;
25609;SDS011;13479;49.044;8.716;2024-01-10T13:40:09;28.70;;;13.13;;
25609;SDS011;13479;49.044;8.716;2024-01-10T13:42:37;24.60;;;11.00;;
25609;SDS011;13479;49.044;8.716;2024-01-10T13:45:06;25.73;;;9.57;;
25609;SDS011;13479;49.044;8.716;2024-01-10T13:47:38;28.73;;;12.40;;
25609;SDS011;13479;49.044;8.716;2024-01-10T13:50:05;33.43;;;14.93;;
25609;SDS011;13479;49.044;8.716;2024-01-10T13:52:31;26.27;;;12.07;;
25609;SDS011;13479;49.044;8.716;2024-01-10T13:54:57;26.70;;;11.97;;
25609;SDS011;13479;49.044;8.716;2024-01-10T13:57:23;28.53;;;12.67;;
25609;SDS011;13479;49.044;8.716;2024-01-10T13:59:48;26.80;;;12.40;;
25609;SDS011;13479;49.044;8.716;2024-01-10T14:02:14;28.93;;;12.70;;
25609;SDS011;13479;49.044;8.716;2024-01-10T14:04:39;28.30;;;12.60;;
25609;SDS011;13479;49.044;8.716;2024-01-10T14:07:04;25.07;;;11.10;;
25609;SDS011;13479;49.044;8.716;2024-01-10T14:09:30;29.40;;;14.07;;
25609;SDS011;13479;49.044;8.716;2024-01-10T14:11:56;30.57;;;11.83;;
25609;SDS011;13479;49.044;8.716;2024-01-10T14:14:21;29.97;;;12.80;;
25609;SDS011;13479;49.044;8.716;2024-01-10T14:16:47;25.27;;;13.00;;
25609;SDS011;13479;49.044;8.716;2024-01-10T14:19:14;28.43;;;12.50;;
25609;SDS011;13479;49.044;8.716;2024-01-10T14:21:42;30.00;;;11.23;;
25609;SDS011;13479;49.044;8.716;2024-01-10T14:24:08;30.87;;;13.23;;
25609;SDS011;13479;49.044;8.716;2024-01-10T14:26:33;23.37;;;10.17;;
25609;SDS011;13479;49.044;8.716;2024-01-10T14:28:59;25.43;;;9.50;;
25609;SDS011;13479;49.044;8.716;2024-01-10T14:31:31;23.37;;;9.70;;
25609;SDS011;13479;49.044;8.716;2024-01-10T14:33:57;25.67;;;8.33;;
25609;SDS011;13479;49.044;8.716;2024-01-10T14:36:22;31.43;;;14.33;;
25609;SDS011;13479;49.044;8.716;2024-01-10T14:38:48;22.03;;;9.17;;
25609;SDS011;13479;49.044;8.716;2024-01-10T14:41:13;28.37;;;12.57;;
25609;SDS011;13479;49.044;8.716;2024-01-10T14:43:38;31.63;;;13.00;;
25609;SDS011;13479;49.044;8.716;2024-01-10T14:46:04;25.20;;;12.00;;
25609;SDS011;13479;49.044;8.716;2024-01-10T14:48:30;34.85;;;17.38;;
25609;SDS011;13479;49.044;8.716;2024-01-10T14:51:00;27.43;;;11.03;;
25609;SDS011;13479;49.044;8.716;2024-01-10T14:53:25;18.10;;;6.93;;
25609;SDS011;13479;49.044;8.716;2024-01-10T14:55:51;30.23;;;13.57;;
25609;SDS011;13479;49.044;8.716;2024-01-10T14:58:17;27.23;;;13.07;;
25609;SDS011;13479;49.044;8.716;2024-01-10T15:00:43;28.57;;;11.93;;
25609;SDS011;13479;49.044;8.716;2024-01-10T15:03:09;31.73;;;11.83;;
25609;SDS011;13479;49.044;8.716;2024-01-10T15:05:34;26.40;;;12.43;;
25609;SDS011;13479;49.044;8.716;2024-01-10T15:08:00;21.77;;;7.97;;
25609;SDS011;13479;49.044;8.716;2024-01-10T15:10:25;36.73;;;14.87;;
25609;SDS011;13479;49.044;8.716;2024-01-10T15:12:52;26.23;;;10.57;;
25609;SDS011;13479;49.044;8.716;2024-01-10T15:15:17;16.57;;;7.43;;
25609;SDS011;13479;49.044;8.716;2024-01-10T15:17:42;34.70;;;12.83;;
25609;SDS011;13479;49.044;8.716;2024-01-10T15:20:08;30.93;;;13.77;;
25609;SDS011;13479;49.044;8.716;2024-01-10T15:22:33;27.87;;;10.57;;
25609;SDS011;13479;49.044;8.716;2024-01-10T15:25:01;28.57;;;10.77;;
25609;SDS011;13479;49.044;8.716;2024-01-10T15:27:27;34.77;;;13.23;;
25609;SDS011;13479;49.044;8.716;2024-01-10T15:29:53;36.27;;;14.93;;
25609;SDS011;13479;49.044;8.716;2024-01-10T15:32:18;40.13;;;15.10;;
25609;SDS011;13479;49.044;8.716;2024-01-10T15:34:43;28.83;;;12.93;;
25609;SDS011;13479;49.044;8.716;2024-01-10T15:37:09;30.63;;;13.27;;
25609;SDS011;13479;49.044;8.716;2024-01-10T15:39:34;31.73;;;13.00;;
25609;SDS011;13479;49.044;8.716;2024-01-10T15:42:00;29.40;;;12.90;;
25609;SDS011;13479;49.044;8.716;2024-01-10T15:44:25;10.37;;;3.97;;
25609;SDS011;13479;49.044;8.716;2024-01-10T15:46:51;29.23;;;12.33;;
25609;SDS011;13479;49.044;8.716;2024-01-10T15:49:17;28.73;;;11.83;;
25609;SDS011;13479;49.044;8.716;2024-01-10T15:51:43;34.33;;;14.67;;
25609;SDS011;13479;49.044;8.716;2024-01-10T15:54:09;32.53;;;13.23;;
25609;SDS011;13479;49.044;8.716;2024-01-10T15:56:34;33.07;;;14.67;;
25609;SDS011;13479;49.044;8.716;2024-01-10T15:59:03;33.10;;;13.77;;
25609;SDS011;13479;49.044;8.716;2024-01-10T16:01:29;30.33;;;12.53;;
25609;SDS011;13479;49.044;8.716;2024-01-10T16:03:54;30.87;;;13.50;;
25609;SDS011;13479;49.044;8.716;2024-01-10T16:06:19;37.03;;;15.17;;
25609;SDS011;13479;49.044;8.716;2024-01-10T16:08:45;33.00;;;13.10;;
25609;SDS011;13479;49.044;8.716;2024-01-10T16:11:10;30.80;;;14.20;;
25609;SDS011;13479;49.044;8.716;2024-01-10T16:13:36;40.33;;;15.77;;
25609;SDS011;13479;49.044;8.716;2024-01-10T16:16:01;34.23;;;13.53;;
25609;SDS011;13479;49.044;8.716;2024-01-10T16:18:29;25.93;;;10.43;;
25609;SDS011;13479;49.044;8.716;2024-01-10T16:20:55;33.80;;;12.23;;
25609;SDS011;13479;49.044;8.716;2024-01-10T16:23:20;33.23;;;13.70;;
25609;SDS011;13479;49.044;8.716;2024-01-10T16:25:46;27.37;;;12.20;;
25609;SDS011;13479;49.044;8.716;2024-01-10T16:28:11;31.87;;;14.33;;
25609;SDS011;13479;49.044;8.716;2024-01-10T16:30:36;33.07;;;14.40;;
25609;SDS011;13479;49.044;8.716;2024-01-10T16:33:02;32.23;;;14.33;;
25609;SDS011;13479;49.044;8.716;2024-01-10T16:35:27;26.77;;;9.57;;
25609;SDS011;13479;49.044;8.716;2024-01-10T16:37:53;38.07;;;15.00;;
25609;SDS011;13479;49.044;8.716;2024-01-10T16:40:18;32.23;;;12.97;;
25609;SDS011;13479;49.044;8.716;2024-01-10T16:42:44;35.70;;;14.30;;
25609;SDS011;13479;49.044;8.716;2024-01-10T16:45:09;31.10;;;12.67;;
25609;SDS011;13479;49.044;8.716;2024-01-10T16:47:35;36.80;;;15.43;;
25609;SDS011;13479;49.044;8.716;2024-01-10T16:50:00;42.10;;;16.47;;
25609;SDS011;13479;49.044;8.716;2024-01-10T16:52:26;41.60;;;15.87;;
25609;SDS011;13479;49.044;8.716;2024-01-10T16:54:51;36.03;;;15.20;;
25609;SDS011;13479;49.044;8.716;2024-01-10T16:57:16;42.60;;;19.40;;
25609;SDS011;13479;49.044;8.716;2024-01-10T16:59:42;42.57;;;20.50;;
25609;SDS011;13479;49.044;8.716;2024-01-10T17:02:08;37.83;;;16.40;;
25609;SDS011;13479;49.044;8.716;2024-01-10T17:04:33;43.17;;;18.53;;
25609;SDS011;13479;49.044;8.716;2024-01-10T17:06:59;33.00;;;12.77;;
25609;SDS011;13479;49.044;8.716;2024-01-10T17:09:24;38.80;;;16.90;;
25609;SDS011;13479;49.044;8.716;2024-01-10T17:11:49;36.10;;;14.63;;
25609;SDS011;13479;49.044;8.716;2024-01-10T17:14:15;32.87;;;13.63;;
25609;SDS011;13479;49.044;8.716;2024-01-10T17:16:41;37.80;;;16.43;;
25609;SDS011;13479;49.044;8.716;2024-01-10T17:19:07;36.53;;;16.57;;
25609;SDS011;13479;49.044;8.716;2024-01-10T17:21:32;32.57;;;13.80;;
25609;SDS011;13479;49.044;8.716;2024-01-10T17:23:57;35.80;;;14.93;;
25609;SDS011;13479;49.044;8.716;2024-01-10T17:26:23;37.03;;;15.27;;
25609;SDS011;13479;49.044;8.716;2024-01-10T17:28:48;32.73;;;13.37;;
25609;SDS011;13479;49.044;8.716;2024-01-10T17:31:14;39.93;;;15.00;;
25609;SDS011;13479;49.044;8.716;2024-01-10T17:33:39;33.40;;;11.97;;
25609;SDS011;13479;49.044;8.716;2024-01-10T17:36:04;40.40;;;17.53;;
25609;SDS011;13479;49.044;8.716;2024-01-10T17:38:30;39.57;;;15.27;;
25609;SDS011;13479;49.044;8.716;2024-01-10T17:40:55;24.37;;;9.00;;
25609;SDS011;13479;49.044;8.716;2024-01-10T17:43:21;28.27;;;12.23;;
25609;SDS011;13479;49.044;8.716;2024-01-10T17:45:47;32.77;;;13.80;;
25609;SDS011;13479;49.044;8.716;2024-01-10T17:48:12;28.47;;;11.83;;
25609;SDS011;13479;49.044;8.716;2024-01-10T17:50:37;34.63;;;14.97;;
25609;SDS011;13479;49.044;8.716;2024-01-10T17:53:03;20.67;;;7.40;;
25609;SDS011;13479;49.044;8.716;2024-01-10T17:55:29;34.80;;;12.33;;
25609;SDS011;13479;49.044;8.716;2024-01-10T17:57:55;31.63;;;12.63;;
25609;SDS011;13479;49.044;8.716;2024-01-10T18:00:20;30.20;;;13.27;;
25609;SDS011;13479;49.044;8.716;2024-01-10T18:02:48;28.03;;;11.03;;
25609;SDS011;13479;49.044;8.716;2024-01-10T18:05:14;39.53;;;13.90;;
25609;SDS011;13479;49.044;8.716;2024-01-10T18:07:39;37.57;;;15.70;;
25609;SDS011;13479;49.044;8.716;2024-01-10T18:10:05;34.67;;;12.90;;
25609;SDS011;13479;49.044;8.716;2024-01-10T18:12:30;33.20;;;12.33;;
25609;SDS011;13479;49.044;8.716;2024-01-10T18:14:56;31.90;;;12.43;;
25609;SDS011;13479;49.044;8.716;2024-01-10T18:17:21;24.80;;;9.80;;
25609;SDS011;13479;49.044;8.716;2024-01-10T18:19:46;37.50;;;14.70;;
25609;SDS011;13479;49.044;8.716;2024-01-10T18:22:12;21.30;;;7.17;;
25609;SDS011;13479;49.044;8.716;2024-01-10T18:24:37;29.50;;;12.40;;
25609;SDS011;13479;49.044;8.716;2024-01-10T18:27:02;31.70;;;11.13;;
25609;SDS011;13479;49.044;8.716;2024-01-10T18:29:28;31.57;;;12.07;;
25609;SDS011;13479;49.044;8.716;2024-01-10T18:31:53;38.37;;;14.73;;
25609;SDS011;13479;49.044;8.716;2024-01-10T18:34:18;37.80;;;15.33;;
25609;SDS011;13479;49.044;8.716;2024-01-10T18:36:44;40.30;;;16.77;;
25609;SDS011;13479;49.044;8.716;2024-01-10T18:39:09;40.23;;;14.90;;
25609;SDS011;13479;49.044;8.716;2024-01-10T18:41:37;39.87;;;14.20;;
25609;SDS011;13479;49.044;8.716;2024-01-10T18:44:03;33.07;;;13.70;;
25609;SDS011;13479;49.044;8.716;2024-01-10T18:46:28;39.17;;;15.50;;
25609;SDS011;13479;49.044;8.716;2024-01-10T18:48:54;31.17;;;13.67;;
25609;SDS011;13479;49.044;8.716;2024-01-10T18:51:19;32.77;;;13.30;;
25609;SDS011;13479;49.044;8.716;2024-01-10T18:53:44;37.27;;;14.70;;
25609;SDS011;13479;49.044;8.716;2024-01-10T18:56:10;29.97;;;13.27;;
25609;SDS011;13479;49.044;8.716;2024-01-10T18:58:35;35.43;;;13.87;;
25609;SDS011;13479;49.044;8.716;2024-01-10T19:01:01;28.33;;;11.03;;
25609;SDS011;13479;49.044;8.716;2024-01-10T19:03:26;37.10;;;15.27;;
25609;SDS011;13479;49.044;8.716;2024-01-10T19:05:51;38.30;;;13.97;;
25609;SDS011;13479;49.044;8.716;2024-01-10T19:08:17;33.17;;;12.77;;
25609;SDS011;13479;49.044;8.716;2024-01-10T19:10:42;32.90;;;12.53;;
25609;SDS011;13479;49.044;8.716;2024-01-10T19:13:07;37.80;;;14.60;;
25609;SDS011;13479;49.044;8.716;2024-01-10T19:15:33;37.47;;;15.27;;
25609;SDS011;13479;49.044;8.716;2024-01-10T19:17:58;28.60;;;11.10;;
25609;SDS011;13479;49.044;8.716;2024-01-10T19:20:24;44.13;;;18.23;;
25609;SDS011;13479;49.044;8.716;2024-01-10T19:22:49;47.47;;;17.73;;
25609;SDS011;13479;49.044;8.716;2024-01-10T19:25:15;36.03;;;15.53;;
25609;SDS011;13479;49.044;8.716;2024-01-10T19:27:40;38.30;;;16.93;;
25609;SDS011;13479;49.044;8.716;2024-01-10T19:30:05;32.43;;;13.33;;
25609;SDS011;13479;49.044;8.716;2024-01-10T19:32:33;43.27;;;17.47;;
25609;SDS011;13479;49.044;8.716;2024-01-10T19:34:58;30.50;;;12.50;;
25609;SDS011;13479;49.044;8.716;2024-01-10T19:37:23;40.40;;;16.57;;